TimeCDT,TemperatureF,Dew PointF,Humidity,Sea Level PressureIn,VisibilityMPH,Wind Direction,Wind SpeedMPH,Gust SpeedMPH,PrecipitationIn,Events,Conditions,WindDirDegrees,DateUTC
12:55 AM,61.0,52.0,72,29.69,10.0,Variable,4.6,-,N/A,,Overcast,0,2013-05-29 05:55:00
1:55 AM,59.0,52.0,78,29.69,10.0,SSE,3.5,-,N/A,,Partly Cloudy,150,2013-05-29 06:55:00
2:55 AM,57.0,51.1,81,29.71,10.0,South,4.6,-,N/A,,Mostly Cloudy,170,2013-05-29 07:55:00
3:55 AM,57.0,51.1,81,29.71,10.0,SSW,5.8,-,N/A,,Overcast,200,2013-05-29 08:55:00
4:55 AM,55.9,51.1,84,29.70,10.0,Calm,Calm,-,N/A,,Scattered Clouds,0,2013-05-29 09:55:00
5:55 AM,55.0,51.1,86,29.70,10.0,Variable,5.8,-,N/A,,Mostly Cloudy,0,2013-05-29 10:55:00
6:15 AM,55.4,51.8,88,29.71,10.0,South,4.6,-,N/A,,Mostly Cloudy,190,2013-05-29 11:15:00
6:48 AM,55.4,51.8,88,29.71,10.0,Variable,3.5,-,N/A,,Scattered Clouds,0,2013-05-29 11:48:00
6:55 AM,55.9,52.0,87,29.71,10.0,South,4.6,-,N/A,,Partly Cloudy,180,2013-05-29 11:55:00
7:55 AM,61.0,54.0,78,29.71,10.0,SW,8.1,-,N/A,,Clear,220,2013-05-29 12:55:00
8:55 AM,64.9,55.9,73,29.70,10.0,SW,8.1,-,N/A,,Clear,220,2013-05-29 13:55:00
9:55 AM,70.0,55.9,61,29.70,10.0,WSW,6.9,-,N/A,,Clear,240,2013-05-29 14:55:00
10:55 AM,73.0,55.9,55,29.69,10.0,Variable,5.8,-,N/A,,Clear,0,2013-05-29 15:55:00
11:55 AM,75.0,55.0,50,29.69,10.0,SW,8.1,-,N/A,,Partly Cloudy,230,2013-05-29 16:55:00
12:55 PM,77.0,55.0,47,29.70,10.0,South,9.2,19.6,N/A,,Mostly Cloudy,190,2013-05-29 17:55:00
1:55 PM,81.0,53.1,38,29.68,10.0,South,8.1,20.7,N/A,,Partly Cloudy,190,2013-05-29 18:55:00
2:55 PM,79.0,52.0,39,29.68,10.0,WSW,6.9,17.3,N/A,,Mostly Cloudy,240,2013-05-29 19:55:00
3:55 PM,77.0,54.0,45,29.69,10.0,SW,8.1,-,N/A,,Mostly Cloudy,230,2013-05-29 20:55:00
4:55 PM,72.0,60.1,66,29.69,10.0,WSW,5.8,-,0.08,,Overcast,250,2013-05-29 21:55:00
5:55 PM,75.0,57.0,53,29.70,10.0,SW,9.2,-,N/A,,Overcast,220,2013-05-29 22:55:00
6:55 PM,72.0,57.0,59,29.70,10.0,SSW,4.6,-,N/A,,Mostly Cloudy,210,2013-05-29 23:55:00
7:55 PM,66.9,59.0,76,29.69,10.0,Calm,Calm,-,0.00,,Overcast,0,2013-05-30 00:55:00
8:55 PM,64.0,61.0,90,29.70,10.0,ESE,3.5,-,N/A,,Overcast,120,2013-05-30 01:55:00
9:55 PM,64.9,57.0,75,29.72,10.0,Calm,Calm,-,N/A,,Scattered Clouds,0,2013-05-30 02:55:00
10:55 PM,63.0,55.9,78,29.73,10.0,SSE,3.5,-,N/A,,Partly Cloudy,160,2013-05-30 03:55:00
11:55 PM,62.1,57.0,84,29.69,10.0,East,9.2,-,0.00,Rain,Light Rain,100,2013-05-30 04:55:00